createdAt,value
2023-05-15T00:01:49.598Z,2.20
2023-05-15T00:04:34.893Z,3.22
2023-05-15T00:07:20.360Z,1.60
2023-05-15T00:10:05.986Z,1.83
2023-05-15T00:12:51.564Z,1.90
2023-05-15T00:15:37.253Z,2.45
2023-05-15T00:18:22.811Z,2.55
2023-05-15T00:21:08.549Z,1.98
2023-05-15T00:23:54.209Z,3.47
2023-05-15T00:26:39.691Z,2.90
2023-05-15T00:29:25.361Z,2.03
2023-05-15T00:32:10.886Z,2.60
2023-05-15T00:34:56.560Z,1.90
2023-05-15T00:37:42.341Z,2.97
2023-05-15T00:40:29.342Z,1.38
2023-05-15T00:43:15.391Z,2.20
2023-05-15T00:46:01.328Z,1.52
2023-05-15T00:48:47.078Z,3.03
2023-05-15T00:51:32.540Z,1.83
2023-05-15T00:54:17.966Z,2.47
2023-05-15T00:57:05.821Z,2.25
2023-05-15T00:59:52.692Z,2.58
2023-05-15T01:02:38.846Z,2.47
2023-05-15T01:05:26.637Z,3.08
2023-05-15T01:08:38.153Z,1.17
2023-05-15T01:11:27.011Z,3.00
2023-05-15T01:14:12.697Z,2.58
2023-05-15T01:16:58.252Z,3.55
2023-05-15T01:19:46.156Z,1.63
2023-05-15T01:22:42.073Z,2.47
2023-05-15T01:25:30.390Z,2.15
2023-05-15T01:28:20.087Z,2.13
2023-05-15T01:31:11.484Z,2.35
2023-05-15T01:34:00.025Z,1.40
2023-05-15T01:36:48.462Z,1.95
2023-05-15T01:39:36.022Z,2.75
2023-05-15T01:42:23.387Z,1.70
2023-05-15T01:45:11.923Z,1.85
2023-05-15T01:47:57.512Z,3.55
2023-05-15T01:50:44.600Z,2.00
2023-05-15T01:53:32.377Z,2.05
2023-05-15T01:56:20.075Z,1.63
2023-05-15T01:59:05.562Z,2.05
2023-05-15T02:01:51.602Z,1.55
2023-05-15T02:04:37.867Z,3.03
2023-05-15T02:07:23.911Z,1.50
2023-05-15T02:10:10.184Z,2.67
2023-05-15T02:12:55.936Z,1.65
2023-05-15T02:15:41.273Z,4.05
2023-05-15T02:18:28.573Z,1.60
2023-05-15T02:21:16.554Z,2.83
2023-05-15T02:24:02.109Z,2.95
2023-05-15T02:27:02.962Z,1.30
2023-05-15T02:30:06.763Z,1.15
2023-05-15T02:33:26.426Z,1.90
2023-05-15T02:36:20.900Z,1.60
2023-05-15T02:39:10.420Z,2.20
2023-05-15T02:41:56.919Z,3.38
2023-05-15T02:44:42.764Z,1.60
2023-05-15T02:47:29.264Z,2.15
2023-05-15T02:50:15.081Z,2.08
2023-05-15T02:53:10.368Z,2.92
2023-05-15T02:55:55.983Z,1.80
2023-05-15T02:58:41.672Z,2.03
2023-05-15T03:01:27.588Z,1.40
2023-05-15T03:04:14.973Z,2.10
2023-05-15T03:07:00.605Z,1.98
2023-05-15T03:09:46.020Z,1.70
2023-05-15T03:12:31.387Z,2.75
2023-05-15T03:15:17.305Z,1.38
2023-05-15T03:18:02.794Z,2.33
2023-05-15T03:20:49.170Z,1.80
2023-05-15T03:23:37.133Z,2.83
2023-05-15T03:26:23.356Z,2.50
2023-05-15T03:29:08.719Z,3.30
2023-05-15T03:31:54.357Z,2.20
2023-05-15T03:34:41.045Z,1.20
2023-05-15T03:37:26.916Z,2.80
2023-05-15T03:40:12.759Z,1.67
2023-05-15T03:42:58.468Z,3.78
2023-05-15T03:45:44.249Z,1.95
2023-05-15T03:48:29.652Z,2.85
2023-05-15T03:51:15.188Z,1.75
2023-05-15T03:54:00.569Z,1.73
2023-05-15T03:56:46.241Z,3.00
2023-05-15T03:59:31.792Z,2.63
2023-05-15T04:02:17.238Z,3.83
2023-05-15T04:05:06.976Z,2.45
2023-05-15T04:07:52.648Z,2.67
2023-05-15T04:10:38.156Z,2.92
2023-05-15T04:13:23.762Z,2.22
2023-05-15T04:16:09.975Z,2.78
2023-05-15T04:18:55.737Z,2.22
2023-05-15T04:21:41.566Z,2.17
2023-05-15T04:24:27.101Z,2.40
2023-05-15T04:27:13.259Z,2.15
2023-05-15T04:29:58.641Z,1.98
2023-05-15T04:32:44.653Z,2.63
2023-05-15T04:35:30.331Z,1.52
2023-05-15T04:38:16.194Z,2.03
2023-05-15T04:41:01.639Z,2.80
2023-05-15T04:43:47.324Z,2.05
2023-05-15T04:46:35.002Z,2.03
2023-05-15T04:49:20.497Z,1.95
2023-05-15T04:52:05.843Z,2.58
2023-05-15T04:54:53.147Z,2.38
2023-05-15T04:57:38.549Z,2.42
2023-05-15T05:00:23.869Z,2.85
2023-05-15T05:03:09.306Z,2.35
2023-05-15T05:05:54.831Z,2.13
2023-05-15T05:08:40.439Z,1.75
2023-05-15T05:11:26.027Z,2.15
2023-05-15T05:14:12.261Z,2.30
2023-05-15T05:16:57.826Z,1.95
2023-05-15T05:19:43.437Z,2.92
2023-05-15T05:22:29.047Z,3.60
2023-05-15T05:25:14.412Z,3.30
2023-05-15T05:27:59.952Z,4.45
2023-05-15T05:30:46.422Z,4.70
2023-05-15T05:33:32.075Z,2.17
2023-05-15T05:36:17.695Z,2.88
2023-05-15T05:39:04.720Z,2.45
2023-05-15T05:41:50.079Z,3.03
2023-05-15T05:44:35.392Z,2.47
2023-05-15T05:47:21.477Z,2.88
2023-05-15T05:50:07.729Z,1.52
2023-05-15T05:52:53.355Z,3.33
2023-05-15T05:55:39.048Z,3.30
2023-05-15T05:58:26.032Z,3.20
2023-05-15T06:01:12.134Z,2.63
2023-05-15T06:03:57.718Z,2.60
2023-05-15T06:06:43.648Z,2.08
2023-05-15T06:09:29.480Z,2.95
2023-05-15T06:12:14.673Z,2.78
2023-05-15T06:15:00.360Z,2.70
2023-05-15T06:17:46.041Z,3.08
2023-05-15T06:20:31.245Z,1.85
2023-05-15T06:23:16.580Z,2.15
2023-05-15T06:26:02.663Z,2.80
2023-05-15T06:28:48.062Z,2.17
2023-05-15T06:31:33.725Z,3.47
2023-05-15T06:34:19.183Z,3.00
2023-05-15T06:37:07.484Z,2.15
2023-05-15T06:39:52.777Z,2.38
2023-05-15T06:42:38.356Z,3.90
2023-05-15T06:45:24.138Z,2.92
2023-05-15T06:48:10.294Z,3.30
2023-05-15T06:50:55.837Z,2.83
2023-05-15T06:53:42.387Z,3.70
2023-05-15T06:56:27.866Z,3.90
2023-05-15T06:59:13.629Z,3.38
2023-05-15T07:01:58.961Z,4.15
2023-05-15T07:04:44.475Z,2.30
2023-05-15T07:07:29.894Z,3.15
2023-05-15T07:10:15.509Z,2.85
2023-05-15T07:13:00.696Z,2.70
2023-05-15T07:15:46.259Z,4.63
2023-05-15T07:18:31.746Z,2.80
2023-05-15T07:21:17.235Z,2.67
2023-05-15T07:24:02.677Z,2.20
2023-05-15T07:26:58.311Z,2.67
2023-05-15T07:29:44.862Z,3.70
2023-05-15T07:32:31.077Z,1.67
2023-05-15T07:35:16.354Z,4.32
2023-05-15T07:38:01.851Z,2.95
2023-05-15T07:40:47.621Z,2.33
2023-05-15T07:43:33.396Z,3.83
2023-05-15T07:46:19.112Z,1.77
2023-05-15T07:49:04.757Z,2.88
2023-05-15T07:51:50.100Z,1.85
2023-05-15T07:54:35.484Z,1.77
2023-05-15T07:57:20.879Z,4.28
2023-05-15T08:00:11.212Z,1.60
2023-05-15T08:03:00.207Z,1.50
2023-05-15T08:05:45.425Z,2.65
2023-05-15T08:08:31.400Z,2.45
2023-05-15T08:11:18.082Z,4.53
2023-05-15T08:14:03.392Z,2.00
2023-05-15T08:16:49.971Z,3.92
2023-05-15T08:19:35.498Z,3.08
2023-05-15T08:22:20.765Z,2.30
2023-05-15T08:25:07.212Z,4.28
2023-05-15T08:27:52.987Z,4.43
2023-05-15T08:30:38.332Z,2.85
2023-05-15T08:33:23.821Z,2.88
2023-05-15T08:36:09.843Z,2.22
2023-05-15T08:38:55.459Z,1.70
2023-05-15T08:41:52.636Z,1.70
2023-05-15T08:44:39.552Z,1.35
2023-05-15T08:47:28.576Z,3.08
2023-05-15T08:50:16.221Z,3.63
2023-05-15T08:53:02.234Z,2.92
2023-05-15T08:55:47.659Z,2.50
2023-05-15T08:58:33.769Z,1.90
2023-05-15T09:01:19.199Z,2.08
2023-05-15T09:04:04.919Z,2.08
2023-05-15T09:06:51.058Z,2.53
2023-05-15T09:09:36.649Z,2.55
2023-05-15T09:12:26.680Z,1.67
2023-05-15T09:15:13.797Z,1.90
2023-05-15T09:17:59.466Z,2.65
2023-05-15T09:20:45.117Z,2.75
2023-05-15T09:23:30.889Z,3.88
2023-05-15T09:26:16.805Z,3.10
2023-05-15T09:29:02.910Z,2.22
2023-05-15T09:31:48.537Z,2.20
2023-05-15T09:34:36.095Z,1.88
2023-05-15T09:37:34.153Z,2.97
2023-05-15T09:40:19.323Z,1.25
2023-05-15T09:43:05.009Z,1.75
2023-05-15T09:45:53.339Z,2.28
2023-05-15T09:48:39.003Z,2.53
2023-05-15T09:51:24.427Z,2.67
2023-05-15T09:54:14.911Z,2.30
2023-05-15T09:57:12.222Z,2.95
2023-05-15T10:00:01.700Z,2.22
2023-05-15T10:02:58.686Z,2.75
2023-05-15T10:05:44.700Z,1.90
2023-05-15T10:08:30.361Z,1.65
2023-05-15T10:11:16.032Z,2.92
2023-05-15T10:14:02.847Z,2.28
2023-05-15T10:16:48.532Z,2.30
2023-05-15T10:19:34.753Z,1.90
2023-05-15T10:22:26.426Z,4.20
2023-05-15T10:25:33.890Z,1.88
2023-05-15T10:28:19.439Z,3.10
2023-05-15T10:31:04.943Z,2.13
2023-05-15T10:33:51.734Z,1.40
2023-05-15T10:36:38.480Z,2.22
2023-05-15T10:39:24.546Z,3.17
2023-05-15T10:42:10.445Z,3.80
2023-05-15T10:45:00.299Z,2.20
2023-05-15T10:47:45.867Z,2.60
2023-05-15T10:50:31.182Z,4.13
2023-05-15T10:53:16.982Z,2.80
2023-05-15T10:56:02.769Z,2.28
2023-05-15T10:58:49.808Z,3.20
2023-05-15T11:01:36.911Z,1.40
2023-05-15T11:04:23.740Z,2.25
2023-05-15T11:07:14.568Z,2.17
2023-05-15T11:10:00.068Z,2.42
2023-05-15T11:12:56.166Z,2.83
2023-05-15T11:15:46.881Z,1.50
2023-05-15T11:18:37.885Z,2.58
2023-05-15T11:21:23.422Z,2.22
2023-05-15T11:24:11.811Z,1.73
2023-05-15T11:27:04.938Z,1.55
2023-05-15T11:30:22.932Z,1.80
2023-05-15T11:33:11.516Z,2.38
2023-05-15T11:36:00.694Z,2.47
2023-05-15T11:38:51.018Z,2.35
2023-05-15T11:41:37.644Z,2.03
2023-05-15T11:44:24.299Z,1.83
2023-05-15T11:47:10.852Z,2.53
2023-05-15T11:49:56.590Z,2.78
2023-05-15T11:52:41.856Z,2.15
2023-05-15T11:55:28.189Z,3.33
2023-05-15T11:58:15.798Z,1.98
2023-05-15T12:01:01.253Z,3.92
2023-05-15T12:03:48.950Z,2.13
2023-05-15T12:06:35.310Z,2.10
2023-05-15T12:09:22.733Z,3.35
2023-05-15T12:12:13.266Z,1.67
2023-05-15T12:14:59.535Z,1.98
2023-05-15T12:17:46.116Z,1.85
2023-05-15T12:20:33.948Z,2.45
2023-05-15T12:23:22.219Z,1.45
2023-05-15T12:26:07.960Z,2.25
2023-05-15T12:28:54.563Z,2.03
2023-05-15T12:31:40.197Z,2.53
2023-05-15T12:34:26.234Z,2.55
2023-05-15T12:37:14.835Z,2.20
2023-05-15T12:40:01.401Z,3.53
2023-05-15T12:42:56.382Z,5.05
2023-05-15T12:45:42.420Z,3.60
2023-05-15T12:48:34.488Z,3.80
2023-05-15T12:51:22.725Z,4.18
2023-05-15T12:54:17.061Z,4.22
2023-05-15T12:57:02.446Z,4.35
2023-05-15T12:59:47.999Z,3.47
2023-05-15T13:02:33.860Z,4.10
2023-05-15T13:05:19.654Z,4.43
2023-05-15T13:08:07.482Z,4.03
2023-05-15T13:10:59.931Z,4.25
2023-05-15T13:13:47.215Z,3.70
2023-05-15T13:16:33.112Z,3.85
2023-05-15T13:19:18.911Z,3.38
2023-05-15T13:22:04.455Z,3.50
2023-05-15T13:24:51.965Z,3.65
2023-05-15T13:27:37.283Z,2.70
2023-05-15T13:30:23.013Z,1.95
2023-05-15T13:33:13.164Z,3.55
2023-05-15T13:35:58.834Z,2.22
2023-05-15T13:38:44.271Z,2.92
2023-05-15T13:41:29.838Z,2.83
2023-05-15T13:44:15.448Z,2.35
2023-05-15T13:47:04.414Z,2.75
2023-05-15T13:49:49.745Z,2.75
2023-05-15T13:52:35.555Z,2.78
2023-05-15T13:55:22.918Z,2.58
2023-05-15T13:58:08.934Z,1.88
2023-05-15T14:00:54.470Z,2.50
2023-05-15T14:03:40.634Z,3.30
2023-05-15T14:06:27.922Z,3.05
2023-05-15T14:09:13.506Z,3.33
2023-05-15T14:11:59.164Z,4.10
2023-05-15T14:14:48.082Z,3.78
2023-05-15T14:17:33.776Z,3.80
2023-05-15T14:20:19.989Z,4.22
2023-05-15T14:23:05.595Z,3.85
2023-05-15T14:25:51.159Z,3.60
2023-05-15T14:28:36.907Z,3.25
2023-05-15T14:31:22.354Z,3.63
2023-05-15T14:34:08.012Z,3.47
2023-05-15T14:36:53.797Z,2.58
2023-05-15T14:39:39.386Z,2.92
2023-05-15T14:42:27.299Z,2.22
2023-05-15T14:45:12.819Z,3.40
2023-05-15T14:47:58.167Z,3.50
2023-05-15T14:50:46.794Z,3.88
2023-05-15T14:53:36.270Z,4.05
2023-05-15T14:56:22.523Z,4.88
2023-05-15T14:59:08.008Z,3.83
2023-05-15T15:01:54.281Z,6.38
2023-05-15T15:04:39.682Z,3.13
2023-05-15T15:07:29.610Z,5.15
2023-05-15T15:10:15.121Z,3.92
2023-05-15T15:13:00.734Z,3.35
2023-05-15T15:15:46.401Z,4.38
2023-05-15T15:18:32.033Z,4.78
2023-05-15T15:21:17.655Z,3.90
2023-05-15T15:24:03.269Z,4.45
2023-05-15T15:26:48.633Z,4.18
2023-05-15T15:29:34.189Z,3.58
2023-05-15T15:32:20.062Z,4.07
2023-05-15T15:35:06.591Z,3.47
2023-05-15T15:37:53.252Z,3.60
2023-05-15T15:40:40.068Z,3.55
2023-05-15T15:43:25.630Z,3.05
2023-05-15T15:46:11.102Z,3.92
2023-05-15T15:48:57.129Z,3.63
2023-05-15T15:51:42.805Z,3.22
2023-05-15T15:54:29.047Z,2.53
2023-05-15T15:57:15.504Z,3.10
2023-05-15T16:00:00.971Z,3.10
2023-05-15T16:02:46.729Z,2.67
2023-05-15T16:05:32.938Z,3.30
2023-05-15T16:08:18.341Z,3.08
2023-05-15T16:11:03.638Z,2.78
2023-05-15T16:13:49.247Z,2.97
2023-05-15T16:16:35.370Z,4.45
2023-05-15T16:19:21.676Z,4.25
2023-05-15T16:22:07.009Z,3.25
2023-05-15T16:24:52.535Z,4.50
2023-05-15T16:27:38.272Z,2.63
2023-05-15T16:30:33.760Z,3.38
2023-05-15T16:33:30.016Z,4.07
2023-05-15T16:36:15.591Z,3.72
2023-05-15T16:39:01.899Z,3.22
2023-05-15T16:41:47.581Z,2.78
2023-05-15T16:44:34.188Z,3.85
2023-05-15T16:47:19.464Z,3.95
2023-05-15T16:50:06.644Z,4.30
2023-05-15T16:52:52.203Z,2.75
2023-05-15T16:55:38.159Z,1.65
2023-05-15T16:58:23.584Z,1.70
2023-05-15T17:01:08.835Z,1.80
2023-05-15T17:03:54.526Z,3.53
2023-05-15T17:06:39.977Z,2.35
2023-05-15T17:09:25.718Z,1.80
2023-05-15T17:12:11.292Z,1.60
2023-05-15T17:14:56.632Z,2.20
2023-05-15T17:17:42.350Z,2.25
2023-05-15T17:20:27.815Z,1.80
2023-05-15T17:23:13.526Z,1.92
2023-05-15T17:25:59.005Z,1.42
2023-05-15T17:28:44.822Z,1.92
2023-05-15T17:31:30.505Z,1.30
2023-05-15T17:34:15.848Z,1.15
2023-05-15T17:37:01.224Z,1.60
2023-05-15T17:39:46.757Z,2.15
2023-05-15T17:42:32.396Z,1.83
2023-05-15T17:45:17.998Z,1.63
2023-05-15T17:48:05.088Z,1.75
2023-05-15T17:50:51.905Z,1.15
2023-05-15T17:53:37.271Z,1.95
2023-05-15T17:56:23.076Z,1.58
2023-05-15T17:59:08.668Z,1.33
2023-05-15T18:01:54.611Z,1.83
2023-05-15T18:04:40.096Z,1.52
2023-05-15T18:07:25.769Z,1.17
2023-05-15T18:10:11.110Z,1.80
2023-05-15T18:12:56.463Z,2.33
2023-05-15T18:15:42.187Z,1.20
2023-05-15T18:18:27.928Z,1.17
2023-05-15T18:21:13.274Z,0.75
2023-05-15T18:23:58.755Z,1.15
2023-05-15T18:26:44.111Z,1.38
2023-05-15T18:29:30.017Z,0.65
2023-05-15T18:32:15.270Z,0.98
2023-05-15T18:35:01.032Z,1.88
2023-05-15T18:37:46.335Z,0.95
2023-05-15T18:40:32.229Z,1.25
2023-05-15T18:43:17.907Z,1.05
2023-05-15T18:46:04.064Z,2.33
2023-05-15T18:48:52.126Z,0.80
2023-05-15T18:51:37.896Z,1.17
2023-05-15T18:54:23.240Z,0.68
2023-05-15T18:57:08.847Z,0.40
2023-05-15T18:59:54.833Z,0.80
2023-05-15T19:02:40.425Z,0.80
2023-05-15T19:05:27.732Z,0.43
2023-05-15T19:08:13.169Z,0.93
2023-05-15T19:11:01.233Z,1.40
2023-05-15T19:13:47.292Z,1.27
2023-05-15T19:16:33.171Z,1.50
2023-05-15T19:19:18.901Z,0.40
2023-05-15T19:22:04.869Z,0.90
2023-05-15T19:24:50.703Z,0.60
2023-05-15T19:27:36.520Z,0.60
2023-05-15T19:30:22.018Z,1.38
2023-05-15T19:33:07.765Z,0.65
2023-05-15T19:35:53.004Z,1.00
2023-05-15T19:38:38.352Z,0.90
2023-05-15T19:41:24.367Z,0.25
2023-05-15T19:44:09.840Z,1.02
2023-05-15T19:46:55.452Z,0.75
2023-05-15T19:49:41.100Z,0.88
2023-05-15T19:52:26.551Z,0.32
2023-05-15T19:55:12.537Z,0.35
2023-05-15T19:57:58.091Z,1.23
2023-05-15T20:00:44.213Z,0.90
2023-05-15T20:03:33.416Z,0.57
2023-05-15T20:06:19.141Z,0.60
2023-05-15T20:09:05.054Z,1.27
2023-05-15T20:11:50.528Z,0.40
2023-05-15T20:14:35.835Z,0.98
2023-05-15T20:17:21.283Z,0.85
2023-05-15T20:20:13.616Z,1.00
2023-05-15T20:22:58.901Z,1.42
2023-05-15T20:25:44.893Z,0.52
2023-05-15T20:28:30.479Z,1.00
2023-05-15T20:31:16.446Z,0.38
2023-05-15T20:34:03.869Z,1.35
2023-05-15T20:36:52.843Z,0.75
2023-05-15T20:39:38.569Z,0.38
2023-05-15T20:42:25.408Z,0.70
2023-05-15T20:45:11.352Z,1.02
2023-05-15T20:47:56.731Z,0.70
2023-05-15T20:50:42.159Z,0.80
2023-05-15T20:53:29.011Z,0.68
2023-05-15T20:56:14.688Z,0.88
2023-05-15T20:59:00.101Z,0.43
2023-05-15T21:01:46.105Z,1.15
2023-05-15T21:04:32.094Z,1.40
2023-05-15T21:07:17.736Z,0.63
2023-05-15T21:10:03.831Z,1.25
2023-05-15T21:12:49.617Z,0.88
2023-05-15T21:15:35.520Z,0.68
2023-05-15T21:18:21.385Z,0.70
2023-05-15T21:21:07.385Z,1.05
2023-05-15T21:23:52.936Z,0.50
2023-05-15T21:26:38.497Z,1.33
2023-05-15T21:29:24.154Z,0.90
2023-05-15T21:32:09.888Z,1.75
2023-05-15T21:34:55.170Z,1.27
2023-05-15T21:37:40.673Z,0.50
2023-05-15T21:40:26.202Z,0.30
2023-05-15T21:43:11.720Z,0.82
2023-05-15T21:45:57.359Z,0.63
2023-05-15T21:48:42.609Z,0.43
2023-05-15T21:51:28.222Z,0.30
2023-05-15T21:54:13.658Z,0.65
2023-05-15T21:56:59.180Z,0.50
2023-05-15T21:59:44.481Z,0.63
2023-05-15T22:02:30.138Z,0.52
2023-05-15T22:05:16.260Z,0.25
2023-05-15T22:08:01.672Z,0.30
2023-05-15T22:10:48.227Z,0.40
2023-05-15T22:13:33.528Z,0.95
2023-05-15T22:16:19.507Z,0.70
2023-05-15T22:19:04.706Z,0.30
2023-05-15T22:21:50.294Z,0.47
2023-05-15T22:24:35.865Z,0.73
2023-05-15T22:27:21.389Z,0.40
2023-05-15T22:30:07.245Z,0.52
2023-05-15T22:32:52.606Z,0.57
2023-05-15T22:35:38.324Z,0.95
2023-05-15T22:38:24.019Z,1.13
2023-05-15T22:41:09.349Z,0.32
2023-05-15T22:43:54.773Z,0.60
2023-05-15T22:46:40.446Z,1.05
2023-05-15T22:49:26.540Z,0.57
2023-05-15T22:52:13.846Z,0.40
2023-05-15T22:54:59.557Z,0.40
2023-05-15T22:57:45.122Z,0.30
2023-05-15T23:00:31.074Z,0.40
2023-05-15T23:03:17.407Z,0.95
2023-05-15T23:06:02.821Z,0.20
2023-05-15T23:08:48.415Z,0.30
2023-05-15T23:11:34.537Z,0.20
2023-05-15T23:14:19.774Z,0.50
2023-05-15T23:17:05.779Z,0.40
2023-05-15T23:19:51.068Z,0.20
2023-05-15T23:22:37.044Z,0.57
2023-05-15T23:25:22.639Z,0.13
2023-05-15T23:28:07.881Z,0.30
2023-05-15T23:30:54.491Z,1.30
2023-05-15T23:33:40.795Z,0.40
2023-05-15T23:36:26.399Z,0.47
2023-05-15T23:39:12.074Z,0.20
2023-05-15T23:41:57.506Z,0.35
2023-05-15T23:44:42.685Z,0.20
2023-05-15T23:47:28.528Z,0.35
2023-05-15T23:50:13.728Z,0.40
2023-05-15T23:52:59.429Z,0.30
2023-05-15T23:55:44.893Z,0.30
2023-05-15T23:58:31.278Z,0.20
